Data for 01/08/2013

Time Sea-Level Adjusted Pressure Absolute Pressure Temperature Relative Humidity Dew Point   
(mb) (inHg) (mb) (inHg) (C) (F) (%) (C) (F)
00:05 1011 29.85 840 24.81 2.9 37.1 51 -6.2 20.8
00:10 1011 29.85 840 24.81 3 37.4 52 -5.9 21.4
00:15 1011 29.85 840 24.81 3 37.4 53 -5.8 21.6
00:20 1011 29.85 840 24.81 3.2 37.8 50 -6.2 20.8
00:25 1011 29.85 840 24.81 3.4 38 50 -6.1 21.1
00:30 1011 29.85 840 24.81 3.3 38 50 -6 21.2
00:35 1010 29.83 840 24.81 3.4 38 50 -6 21.2
00:40 1010 29.83 840 24.81 3.4 38.1 50 -6 21.2
00:45 1010 29.83 839 24.78 3.3 38 50 -6.1 21.1
00:50 1010 29.83 839 24.78 3.4 38.1 49 -6.2 20.8
00:55 1010 29.83 839 24.78 3.4 38.1 50 -6 21.2
01:00 1010 29.83 839 24.78 3.4 38.1 50 -6 21.2
01:05 1010 29.83 839 24.78 3.3 38 51 -6 21.3
01:10 1010 29.83 839 24.78 3.3 37.9 50 -6.2 20.8
01:15 1010 29.83 839 24.78 3.3 38 50 -6.2 20.8
01:20 1010 29.83 839 24.78 3.3 37.9 50 -6.3 20.7
01:25 1010 29.83 839 24.78 3.1 37.6 51 -6.1 21
01:30 1010 29.83 839 24.78 3.2 37.7 49 -6.6 20.1
01:35 1010 29.83 839 24.78 3.2 37.8 50 -6.1 21
01:40 1010 29.83 839 24.78 3.1 37.6 50 -6.3 20.7
01:45 1010 29.83 839 24.78 3 37.4 51 -6.2 20.8
01:50 1010 29.83 839 24.78 2.9 37.3 51 -6.3 20.6
01:55 1010 29.83 839 24.78 3 37.5 50 -6.5 20.4
02:00 1010 29.83 840 24.81 3 37.5 51 -6 21.1
02:05 1010 29.83 840 24.81 3 37.4 51 -6.3 20.7
02:10 1010 29.83 840 24.81 2.9 37.3 50 -6.4 20.4
02:15 1010 29.83 840 24.81 2.9 37.2 51 -6.4 20.5
02:20 1010 29.83 840 24.81 2.9 37.1 50 -6.6 20.2
02:25 1011 29.85 840 24.81 2.9 37.2 50 -6.6 20.2
02:30 1011 29.85 840 24.81 2.8 37 51 -6.3 20.7
02:35 1011 29.85 840 24.81 2.8 37.1 51 -6.3 20.6
02:40 1011 29.85 840 24.81 3 37.4 49 -6.6 20
02:45 1011 29.85 840 24.81 3 37.5 48 -6.8 19.7
02:50 1011 29.85 840 24.81 3.1 37.5 49 -6.6 20.2
02:55 1011 29.85 840 24.81 3 37.4 51 -6.1 21
03:00 1011 29.85 840 24.81 2.8 37 51 -6.3 20.6
03:05 1011 29.85 840 24.81 2.7 36.9 50 -6.7 20
03:10 1011 29.85 840 24.81 2.8 37.1 50 -6.5 20.3
03:15 1011 29.85 840 24.81 2.7 36.9 51 -6.5 20.3
03:20 1011 29.85 840 24.81 2.7 36.9 49 -6.8 19.7
03:25 1011 29.85 840 24.81 2.8 37 50 -6.6 20
03:30 1011 29.85 840 24.81 2.7 36.9 51 -6.5 20.3
03:35 1011 29.85 841 24.83 2.7 36.9 50 -6.7 20
03:40 1011 29.85 841 24.83 2.7 36.8 49 -6.9 19.6
03:45 1011 29.85 841 24.83 2.8 37 47 -7.3 18.9
03:50 1011 29.85 841 24.83 3 37.3 48 -7 19.3
03:55 1011 29.85 841 24.83 2.9 37.2 49 -6.7 19.9
04:00 1011 29.85 841 24.83 2.7 36.9 48 -7.1 19.2
04:05 1011 29.85 841 24.83 2.8 37 49 -6.8 19.7
04:10 1012 29.88 841 24.83 2.7 36.9 49 -6.9 19.6
04:15 1011 29.85 841 24.83 2.6 36.6 49 -7.1 19.3
04:20 1011 29.85 841 24.83 2.5 36.6 50 -6.8 19.7
04:25 1011 29.85 841 24.83 2.4 36.4 51 -6.6 20.1
04:30 1011 29.85 841 24.83 2.4 36.3 49 -7.2 19
04:35 1012 29.88 841 24.83 2.4 36.4 50 -7.1 19.3
04:40 1012 29.88 841 24.83 2.3 36.1 51 -6.8 19.7
04:45 1012 29.88 841 24.83 2.2 35.9 50 -7.1 19.3
04:50 1012 29.88 841 24.83 2.2 35.9 50 -7.2 19
04:55 1012 29.88 841 24.83 2.2 35.9 50 -7.3 18.9
05:00 1012 29.88 841 24.83 2.2 35.9 51 -7 19.3
05:05 1012 29.88 841 24.83 2.1 35.9 50 -7.1 19.2
05:10 1012 29.88 841 24.83 2.1 35.8 50 -7.1 19.1
05:15 1012 29.88 841 24.83 2.1 35.8 50 -7.3 18.8
05:20 1012 29.88 841 24.83 2.2 35.9 50 -7.2 19.1
05:25 1012 29.88 841 24.83 2.1 35.8 50 -7.3 18.9
05:30 1012 29.88 841 24.83 2.1 35.8 50 -7.3 18.8
05:35 1012 29.88 841 24.83 2 35.6 49 -7.5 18.5
05:40 1012 29.88 841 24.83 2.1 35.7 50 -7.4 18.8
05:45 1012 29.88 841 24.83 2 35.5 51 -7.2 19
05:50 1012 29.88 841 24.83 2 35.7 50 -7.3 18.8
05:55 1012 29.88 841 24.83 1.9 35.5 50 -7.5 18.6
06:00 1012 29.88 841 24.83 1.9 35.4 50 -7.4 18.6
06:05 1012 29.88 841 24.83 1.8 35.3 50 -7.5 18.5
06:10 1012 29.88 841 24.83 1.8 35.3 49 -7.7 18.1
06:15 1012 29.88 841 24.83 1.9 35.5 50 -7.4 18.7
06:20 1012 29.88 842 24.86 1.8 35.2 50 -7.6 18.2
06:25 1012 29.88 842 24.86 1.8 35.2 50 -7.6 18.3
06:30 1012 29.88 842 24.86 1.8 35.2 49 -7.9 17.7
06:35 1012 29.88 842 24.86 1.8 35.3 49 -7.9 17.8
06:40 1013 29.91 842 24.86 1.9 35.3 48 -7.9 17.7
06:45 1013 29.91 842 24.86 1.8 35.3 49 -7.7 18.2
06:50 1013 29.91 842 24.86 1.7 35.1 49 -7.9 17.8
06:55 1013 29.91 842 24.86 1.7 35.1 50 -7.7 18.2
07:00 1013 29.91 842 24.86 1.7 35.1 50 -7.6 18.3
07:05 1013 29.91 842 24.86 1.6 34.9 50 -7.8 18
07:10 1013 29.91 842 24.86 1.7 35 49 -7.8 18
07:15 1013 29.91 842 24.86 1.7 35 50 -7.7 18.1
07:20 1013 29.91 842 24.86 1.7 35 49 -7.9 17.7
07:25 1013 29.91 843 24.89 1.7 35.1 48 -8.1 17.4
07:30 1013 29.91 843 24.89 1.7 35 49 -7.9 17.8
07:35 1013 29.91 843 24.89 1.5 34.8 48 -8.2 17.2
07:40 1013 29.91 843 24.89 1.7 35 47 -8.6 16.6
07:45 1013 29.91 843 24.89 1.8 35.2 47 -8.5 16.8
07:50 1013 29.91 843 24.89 1.8 35.2 48 -8.2 17.2
07:55 1013 29.91 843 24.89 1.7 35 44 -9.2 15.5
08:00 1013 29.91 843 24.89 2.1 35.8 42 -9.4 15
08:05 1014 29.94 843 24.89 2.2 35.9 46 -8.4 16.9
08:10 1014 29.94 843 24.89 1.9 35.3 48 -8.1 17.5
08:15 1014 29.94 843 24.89 1.7 35.1 47 -8.5 16.8
08:20 1014 29.94 843 24.89 1.8 35.2 46 -8.7 16.3
08:25 1014 29.94 843 24.89 1.8 35.3 43 -9.5 14.8
08:30 1014 29.94 843 24.89 2 35.6 47 -8.2 17.2
08:35 1014 29.94 843 24.89 1.6 34.9 49 -8.1 17.5
08:40 1014 29.94 843 24.89 1.5 34.7 49 -8.1 17.5
08:45 1014 29.94 843 24.89 1.5 34.7 48 -8.2 17.2
08:50 1014 29.94 844 24.92 1.6 34.8 49 -8.1 17.4
08:55 1014 29.94 844 24.92 1.3 34.4 48 -8.5 16.7
09:00 1015 29.97 844 24.92 1.3 34.3 49 -8.4 16.9
09:05 1015 29.97 844 24.92 1.2 34.1 48 -8.6 16.4
09:10 1015 29.97 844 24.92 1.3 34.4 46 -9.2 15.5
09:15 1015 29.97 844 24.92 1.8 35.2 43 -9.6 14.8
09:20 1015 29.97 844 24.92 1.8 35.2 45 -8.9 15.9
09:25 1015 29.97 844 24.92 1.7 35.1 45 -9 15.8
09:30 1015 29.97 844 24.92 1.7 35.1 45 -9 15.8
09:35 1015 29.97 845 24.95 1.7 35 44 -9.2 15.4
09:40 1015 29.97 844 24.92 1.7 35.1 44 -9.2 15.5
09:45 1015 29.97 845 24.95 1.6 34.9 45 -9.2 15.4
09:50 1015 29.97 845 24.95 1.6 34.8 45 -9.1 15.7
09:55 1015 29.97 845 24.95 1.4 34.6 45 -9.3 15.3
10:00 1015 29.97 845 24.95 1.6 34.8 44 -9.3 15.2
10:05 1016 30 845 24.95 1.9 35.4 40 -10.4 13.4
10:10 1016 30 845 24.95 2.2 36 39 -10.3 13.5
10:15 1016 30 845 24.95 2.4 36.3 38 -10.7 12.8
10:20 1016 30 845 24.95 2.6 36.6 39 -10.1 13.7
10:25 1016 30 845 24.95 2.5 36.5 39 -10 13.9
10:30 1016 30 846 24.98 2.4 36.4 39 -10.2 13.7
10:35 1016 30 846 24.98 2.5 36.5 40 -9.9 14.3
10:40 1017 30.03 846 24.98 2.5 36.6 40 -9.7 14.5
10:45 1017 30.03 846 24.98 2.4 36.2 42 -9.3 15.3
10:50 1017 30.03 846 24.98 2 35.6 44 -9.1 15.6
10:55 1017 30.03 846 24.98 1.9 35.4 42 -9.6 14.7
11:00 1017 30.03 846 24.98 2.2 36 42 -9.4 15.1
11:05 1017 30.03 846 24.98 2.4 36.3 42 -9.2 15.4
11:10 1017 30.03 846 24.98 2.1 35.9 42 -9.3 15.2
11:15 1017 30.03 846 24.98 2.4 36.3 40 -9.8 14.3
11:20 1017 30.03 846 24.98 2.7 36.8 40 -9.7 14.6
11:25 1017 30.03 846 24.98 2.5 36.5 42 -9 15.7
11:30 1017 30.03 846 24.98 2.5 36.5 42 -9.3 15.3
11:35 1017 30.03 846 24.98 2.6 36.7 43 -8.8 16.1
11:40 1017 30.03 846 24.98 2.6 36.7 42 -9 15.8
11:45 1017 30.03 846 24.98 2.6 36.6 43 -8.7 16.4
11:50 1017 30.03 847 25.01 2.5 36.6 44 -8.5 16.6
11:55 1017 30.03 847 25.01 2.5 36.5 44 -8.4 16.8
12:00 1017 30.03 847 25.01 2.5 36.5 44 -8.5 16.7
12:05 1017 30.03 847 25.01 2.6 36.7 43 -8.7 16.3
12:10 1017 30.03 847 25.01 2.6 36.6 42 -9.1 15.7
12:15 1017 30.03 847 25.01 2.5 36.5 42 -9.1 15.7
12:20 1017 30.03 847 25.01 2.5 36.6 44 -8.5 16.7
12:25 1017 30.03 847 25.01 2.6 36.6 44 -8.6 16.6
12:30 1017 30.03 847 25.01 2.5 36.4 43 -9 15.8
12:35 1017 30.03 846 24.98 2.5 36.6 43 -8.8 16.2
12:40 1017 30.03 846 24.98 2.6 36.7 43 -8.7 16.4
12:45 1017 30.03 847 25.01 2.6 36.8 44 -8.6 16.6
12:50 1017 30.03 847 25.01 2.6 36.7 42 -9 15.8
12:55 1017 30.03 846 24.98 2.6 36.7 43 -8.6 16.5
13:00 1017 30.03 846 24.98 2.7 36.8 43 -8.6 16.5
13:05 1017 30.03 846 24.98 2.6 36.6 43 -8.9 15.9
13:10 1017 30.03 846 24.98 2.6 36.7 43 -8.7 16.3
13:15 1017 30.03 846 24.98 2.6 36.8 42 -9 15.8
13:20 1017 30.03 846 24.98 2.7 36.8 42 -9.1 15.6
13:25 1017 30.03 846 24.98 2.8 37.1 41 -9 15.7
13:30 1017 30.03 846 24.98 2.8 37 44 -8.4 16.9
13:35 1017 30.03 846 24.98 2.8 37.1 39 -9.7 14.5
13:40 1017 30.03 846 24.98 2.8 37.1 39 -9.7 14.6
13:45 1017 30.03 846 24.98 2.9 37.2 38 -9.9 14.1
13:50 1017 30.03 846 24.98 2.8 37 41 -9.2 15.5
13:55 1017 30.03 846 24.98 2.8 37.1 40 -9.6 14.7
14:00 1017 30.03 846 24.98 2.9 37.2 40 -9.4 15
14:05 1017 30.03 846 24.98 2.8 37 43 -8.6 16.4
14:10 1017 30.03 846 24.98 2.6 36.8 43 -8.7 16.3
14:15 1017 30.03 846 24.98 2.7 36.9 43 -8.6 16.5
14:20 1017 30.03 846 24.98 2.7 36.8 45 -8.2 17.2
14:25 1017 30.03 846 24.98 2.6 36.7 45 -8.2 17.2
14:30 1017 30.03 846 24.98 2.6 36.7 45 -8.1 17.5
14:35 1017 30.03 846 24.98 2.6 36.7 45 -8 17.6
14:40 1017 30.03 846 24.98 2.6 36.6 47 -7.8 18
14:45 1017 30.03 846 24.98 2.5 36.5 47 -7.8 18
14:50 1017 30.03 846 24.98 2.6 36.6 45 -8.3 17
14:55 1017 30.03 846 24.98 2.7 36.8 45 -8.2 17.2
15:00 1017 30.03 846 24.98 2.7 36.9 46 -7.9 17.8
15:05 1017 30.03 846 24.98 2.8 37 45 -8.1 17.5
15:10 1017 30.03 846 24.98 2.9 37.1 44 -8.1 17.5
15:15 1017 30.03 846 24.98 2.9 37.3 46 -7.7 18.1
15:20 1017 30.03 846 24.98 3 37.5 44 -7.9 17.7
15:25 1017 30.03 846 24.98 3.1 37.5 47 -7.2 19
15:30 1017 30.03 846 24.98 3.1 37.5 45 -7.8 18
15:35 1017 30.03 846 24.98 3.1 37.5 45 -7.8 18
15:40 1017 30.03 846 24.98 3 37.5 46 -7.5 18.6
15:45 1017 30.03 846 24.98 3 37.5 47 -7.1 19.1
15:50 1017 30.03 846 24.98 3.1 37.6 47 -7.1 19.3
15:55 1017 30.03 846 24.98 3.1 37.5 47 -7.1 19.1
16:00 1017 30.03 846 24.98 3 37.5 47 -7.1 19.1
16:05 1017 30.03 846 24.98 3.1 37.6 48 -7 19.4
16:10 1017 30.03 846 24.98 3.2 37.8 47 -7 19.3
16:15 1017 30.03 847 25.01 3.3 38 47 -7 19.5
16:20 1017 30.03 847 25.01 3.4 38.1 48 -6.7 20
16:25 1017 30.03 846 24.98 3.4 38.1 48 -6.6 20.1
16:30 1017 30.03 846 24.98 3.4 38.1 49 -6.4 20.4
16:35 1017 30.03 846 24.98 3.4 38 49 -6.5 20.4
16:40 1017 30.03 846 24.98 3.4 38.2 48 -6.6 20.2
16:45 1017 30.03 846 24.98 3.4 38.1 48 -6.6 20.1
16:50 1017 30.03 847 25.01 3.3 37.9 49 -6.5 20.3
16:55 1017 30.03 846 24.98 3.2 37.8 50 -6.1 21
17:00 1017 30.03 846 24.98 3.1 37.6 51 -6.2 20.9
17:05 1017 30.03 846 24.98 2.9 37.3 53 -5.8 21.5
17:10 1017 30.03 846 24.98 2.8 37.1 53 -5.8 21.6
17:15 1017 30.03 846 24.98 2.7 36.9 52 -6.3 20.7
17:20 1017 30.03 847 25.01 2.7 36.8 54 -5.8 21.5
17:25 1017 30.03 847 25.01 2.7 36.8 53 -5.9 21.4
17:30 1017 30.03 846 24.98 2.7 36.9 51 -6.3 20.6
17:35 1017 30.03 846 24.98 2.8 37 52 -6.1 21
17:40 1017 30.03 846 24.98 2.8 37 51 -6.4 20.5
17:45 1017 30.03 846 24.98 2.8 37 51 -6.4 20.4
17:50 1017 30.03 846 24.98 2.7 36.9 52 -6.2 20.9
17:55 1017 30.03 846 24.98 2.6 36.7 53 -6.1 21
18:00 1017 30.03 846 24.98 2.5 36.5 53 -6.1 21.1
18:05 1017 30.03 846 24.98 2.5 36.5 54 -6 21.2
18:10 1017 30.03 846 24.98 2.4 36.3 54 -5.9 21.3
18:15 1017 30.03 846 24.98 2.3 36.1 55 -5.9 21.4
18:20 1017 30.03 847 25.01 2.2 35.9 56 -5.8 21.6
18:25 1017 30.03 847 25.01 2.1 35.8 56 -5.8 21.6
18:30 1017 30.03 847 25.01 2 35.7 57 -5.7 21.8
18:35 1017 30.03 846 24.98 2 35.7 57 -5.6 21.9
18:40 1017 30.03 846 24.98 2 35.6 56 -5.8 21.6
18:45 1017 30.03 846 24.98 2 35.6 57 -5.6 21.8
18:50 1017 30.03 846 24.98 2 35.5 56 -6 21.2
18:55 1017 30.03 846 24.98 1.9 35.4 57 -5.8 21.5
19:00 1017 30.03 846 24.98 1.9 35.5 56 -6 21.3
19:05 1017 30.03 846 24.98 2.1 35.8 55 -6 21.2
19:10 1017 30.03 846 24.98 2.1 35.8 54 -6.3 20.7
19:15 1017 30.03 846 24.98 2.4 36.3 52 -6.5 20.3
19:20 1017 30.03 846 24.98 2.5 36.5 52 -6.3 20.7
19:25 1017 30.03 846 24.98 2.5 36.5 53 -6.2 20.8
19:30 1017 30.03 846 24.98 2.5 36.5 51 -6.6 20.1
19:35 1017 30.03 846 24.98 2.7 36.8 50 -6.7 20
19:40 1017 30.03 846 24.98 2.8 37 50 -6.7 19.9
19:45 1017 30.03 846 24.98 2.9 37.1 50 -6.5 20.2
19:50 1017 30.03 846 24.98 2.9 37.2 49 -6.7 20
19:55 1017 30.03 846 24.98 2.9 37.2 49 -6.8 19.8
20:00 1017 30.03 846 24.98 3 37.5 49 -6.6 20.2
20:05 1017 30.03 846 24.98 3.3 37.9 48 -6.6 20
20:10 1017 30.03 846 24.98 3.3 38 49 -6.4 20.4
20:15 1017 30.03 846 24.98 3.3 37.9 47 -6.9 19.6
20:20 1017 30.03 846 24.98 3.5 38.4 45 -7.2 19
20:25 1017 30.03 846 24.98 4 39.2 45 -7 19.5
20:30 1017 30.03 846 24.98 4.1 39.4 45 -6.8 19.7
20:35 1017 30.03 846 24.98 4.1 39.5 45 -6.8 19.7
20:40 1017 30.03 846 24.98 4.4 39.9 44 -6.9 19.5
20:45 1017 30.03 846 24.98 4.5 40 44 -6.8 19.8
20:50 1017 30.03 846 24.98 4.4 40 44 -6.8 19.7
20:55 1017 30.03 846 24.98 4.3 39.8 45 -6.4 20.4
21:00 1017 30.03 846 24.98 4.2 39.6 45 -6.6 20.2
21:05 1017 30.03 846 24.98 4.1 39.4 45 -6.8 19.7
21:10 1017 30.03 846 24.98 4.1 39.3 46 -6.6 20.2
21:15 1017 30.03 846 24.98 4 39.1 48 -6.1 21
21:20 1017 30.03 846 24.98 3.9 39.1 46 -6.7 20
21:25 1017 30.03 846 24.98 4.1 39.4 47 -6.1 21.1
21:30 1017 30.03 846 24.98 4 39.2 48 -6.1 21
21:35 1017 30.03 846 24.98 3.8 38.8 49 -6 21.2
21:40 1017 30.03 846 24.98 3.6 38.5 50 -6 21.3
21:45 1017 30.03 846 24.98 3.5 38.3 50 -5.9 21.4
21:50 1017 30.03 846 24.98 3.4 38.2 51 -5.7 21.8
21:55 1017 30.03 846 24.98 3.8 38.8 49 -5.9 21.4
22:00 1017 30.03 846 24.98 4.2 39.6 49 -5.7 21.8
22:05 1017 30.03 846 24.98 4.3 39.7 49 -5.5 22.2
22:10 1017 30.03 846 24.98 4.4 40 50 -5.2 22.7
22:15 1017 30.03 846 24.98 4.7 40.4 48 -5.3 22.5
22:20 1017 30.03 846 24.98 4.8 40.7 49 -5 23.1
22:25 1017 30.03 846 24.98 4.8 40.7 49 -4.9 23.2
22:30 1017 30.03 846 24.98 4.5 40.2 51 -4.8 23.3
22:35 1017 30.03 846 24.98 4.4 40 50 -5 23
22:40 1017 30.03 846 24.98 4.5 40 51 -4.9 23.1
22:45 1017 30.03 846 24.98 4.3 39.7 50 -5.2 22.7
22:50 1017 30.03 846 24.98 4.3 39.7 50 -5.2 22.6
22:55 1017 30.03 846 24.98 4.4 39.9 48 -5.6 22
23:00 1017 30.03 846 24.98 4.2 39.5 50 -5.3 22.5
23:05 1017 30.03 846 24.98 4.2 39.5 50 -5.3 22.4
23:10 1017 30.03 846 24.98 4.4 39.9 50 -5.2 22.7
23:15 1017 30.03 846 24.98 4.4 39.9 51 -4.7 23.5
23:20 1017 30.03 846 24.98 4.3 39.7 52 -4.8 23.3
23:25 1017 30.03 847 25.01 4.3 39.7 52 -4.7 23.5
23:30 1018 30.06 847 25.01 3.9 39 53 -4.9 23.1
23:35 1018 30.06 847 25.01 3.4 38.1 53 -5.4 22.2
23:40 1018 30.06 847 25.01 3.2 37.8 53 -5.5 22.2
23:45 1018 30.06 847 25.01 3.2 37.8 52 -5.6 21.9
23:50 1018 30.06 847 25.01 3.5 38.3 52 -5.5 22.1
23:55 1018 30.06 847 25.01 3.5 38.3 52 -5.4 22.2
24:00 1018 30.06 847 25.01 3.1 37.6 54 -5.4 22.3